createdAt,value
2022-12-08T00:01:13.062Z,42.95
2022-12-08T00:03:40.763Z,43.22
2022-12-08T00:06:09.653Z,43.15
2022-12-08T00:08:36.040Z,43.00
2022-12-08T00:11:02.573Z,43.28
2022-12-08T00:13:28.965Z,42.79
2022-12-08T00:15:55.523Z,42.97
2022-12-08T00:18:22.105Z,43.30
2022-12-08T00:20:48.456Z,42.95
2022-12-08T00:23:14.848Z,43.00
2022-12-08T00:25:41.267Z,42.93
2022-12-08T00:28:07.750Z,43.63
2022-12-08T00:30:34.154Z,43.05
2022-12-08T00:33:00.554Z,43.63
2022-12-08T00:35:27.162Z,43.75
2022-12-08T00:37:59.094Z,43.66
2022-12-08T00:40:27.188Z,44.10
2022-12-08T00:42:53.590Z,44.01
2022-12-08T00:45:20.030Z,43.96
2022-12-08T00:47:46.445Z,44.00
2022-12-08T00:50:12.906Z,43.85
2022-12-08T00:52:39.616Z,44.05
2022-12-08T00:55:08.253Z,43.65
2022-12-08T00:57:34.643Z,43.98
2022-12-08T01:00:01.087Z,43.72
2022-12-08T01:02:27.660Z,43.69
2022-12-08T01:04:54.072Z,43.39
2022-12-08T01:07:20.473Z,43.60
2022-12-08T01:09:46.863Z,43.47
2022-12-08T01:12:13.337Z,43.49
2022-12-08T01:14:39.722Z,43.03
2022-12-08T01:17:06.245Z,43.90
2022-12-08T01:19:33.538Z,43.79
2022-12-08T01:21:59.995Z,43.40
2022-12-08T01:24:26.390Z,43.52
2022-12-08T01:26:52.845Z,44.03
2022-12-08T01:29:19.241Z,43.71
2022-12-08T01:31:45.624Z,43.51
2022-12-08T01:34:12.819Z,43.64
2022-12-08T01:36:39.299Z,43.55
2022-12-08T01:39:06.739Z,43.93
2022-12-08T01:41:33.412Z,43.76
2022-12-08T01:44:00.087Z,43.95
2022-12-08T01:46:27.144Z,43.86
2022-12-08T01:48:53.619Z,44.15
2022-12-08T01:51:21.166Z,44.08
2022-12-08T01:53:47.617Z,43.83
2022-12-08T01:56:14.067Z,43.83
2022-12-08T01:58:40.430Z,43.46
2022-12-08T02:01:06.884Z,43.54
2022-12-08T02:03:36.420Z,43.56
2022-12-08T02:06:02.909Z,43.20
2022-12-08T02:08:31.784Z,43.00
2022-12-08T02:10:58.744Z,43.76
2022-12-08T02:13:26.187Z,43.12
2022-12-08T02:15:52.745Z,43.37
2022-12-08T02:18:19.333Z,43.14
2022-12-08T02:20:45.865Z,42.78
2022-12-08T02:23:12.342Z,42.46
2022-12-08T02:25:38.820Z,42.60
2022-12-08T02:28:08.840Z,43.18
2022-12-08T02:30:35.312Z,43.24
2022-12-08T02:33:02.221Z,43.10
2022-12-08T02:35:29.043Z,43.36
2022-12-08T02:37:55.706Z,42.78
2022-12-08T02:40:22.217Z,42.95
2022-12-08T02:42:49.038Z,42.41
2022-12-08T02:45:15.600Z,42.88
2022-12-08T02:47:43.121Z,43.13
2022-12-08T02:50:09.524Z,41.43
2022-12-08T02:52:36.009Z,42.58
2022-12-08T02:55:02.732Z,42.32
2022-12-08T02:57:29.170Z,42.34
2022-12-08T02:59:55.653Z,41.92
2022-12-08T03:02:22.159Z,41.39
2022-12-08T03:04:50.743Z,42.77
2022-12-08T03:07:17.467Z,42.95
2022-12-08T03:09:43.887Z,43.57
2022-12-08T03:12:10.356Z,43.52
2022-12-08T03:14:36.821Z,43.45
2022-12-08T03:17:03.563Z,43.50
2022-12-08T03:19:30.936Z,43.79
2022-12-08T03:21:57.440Z,43.68
2022-12-08T03:24:23.793Z,43.47
2022-12-08T03:26:50.304Z,44.77
2022-12-08T03:29:16.915Z,44.60
2022-12-08T03:31:43.312Z,44.46
2022-12-08T03:34:09.744Z,44.24
2022-12-08T03:36:36.590Z,44.45
2022-12-08T03:39:03.094Z,44.14
2022-12-08T03:41:29.465Z,44.49
2022-12-08T03:43:58.259Z,44.08
2022-12-08T03:48:50.428Z,44.62
2022-12-08T03:51:17.169Z,44.58
2022-12-08T03:53:43.564Z,44.65
2022-12-08T03:56:09.943Z,44.53
2022-12-08T03:58:37.697Z,44.52
2022-12-08T04:01:04.329Z,44.68
2022-12-08T04:03:30.713Z,44.46
2022-12-08T04:05:57.179Z,44.46
2022-12-08T04:08:24.268Z,44.75
2022-12-08T04:10:50.760Z,44.63
2022-12-08T04:13:17.156Z,44.46
2022-12-08T04:15:43.619Z,44.99
2022-12-08T04:18:10.080Z,44.97
2022-12-08T04:20:36.449Z,44.73
2022-12-08T04:23:02.881Z,44.78
2022-12-08T04:25:29.514Z,44.75
2022-12-08T04:27:56.109Z,45.05
2022-12-08T04:30:22.493Z,45.07
2022-12-08T04:32:48.905Z,44.86
2022-12-08T04:35:15.332Z,44.95
2022-12-08T04:37:42.241Z,44.99
2022-12-08T04:40:08.905Z,45.32
2022-12-08T04:42:35.266Z,45.21
2022-12-08T04:45:01.722Z,45.09
2022-12-08T04:47:28.693Z,45.15
2022-12-08T04:49:55.953Z,45.20
2022-12-08T04:52:22.902Z,45.64
2022-12-08T04:54:49.643Z,45.56
2022-12-08T04:57:16.103Z,45.77
2022-12-08T04:59:42.512Z,45.89
2022-12-08T05:02:09.001Z,46.56
2022-12-08T05:04:35.478Z,46.47
2022-12-08T05:07:01.943Z,46.69
2022-12-08T05:09:28.321Z,46.08
2022-12-08T05:11:56.103Z,46.20
2022-12-08T05:14:22.480Z,46.05
2022-12-08T05:16:49.035Z,45.75
2022-12-08T05:19:15.579Z,45.47
2022-12-08T05:21:42.024Z,45.84
2022-12-08T05:24:08.467Z,45.91
2022-12-08T05:26:35.287Z,45.87
2022-12-08T05:29:02.102Z,45.90
2022-12-08T05:31:28.644Z,45.56
2022-12-08T05:33:57.435Z,46.04
2022-12-08T05:36:27.919Z,45.87
2022-12-08T05:38:54.425Z,45.74
2022-12-08T05:41:20.791Z,45.66
2022-12-08T05:43:47.796Z,45.83
2022-12-08T05:46:14.472Z,46.16
2022-12-08T05:48:40.881Z,45.84
2022-12-08T05:51:07.252Z,46.18
2022-12-08T05:53:33.890Z,46.01
2022-12-08T05:56:00.296Z,46.24
2022-12-08T05:58:29.172Z,46.13
2022-12-08T06:00:55.561Z,46.30
2022-12-08T06:03:22.122Z,45.79
2022-12-08T06:05:48.756Z,46.20
2022-12-08T06:08:15.197Z,46.10
2022-12-08T06:10:41.802Z,45.79
2022-12-08T06:13:08.215Z,45.92
2022-12-08T06:15:37.373Z,46.31
2022-12-08T06:18:03.793Z,45.89
2022-12-08T06:20:30.491Z,46.11
2022-12-08T06:22:56.939Z,45.75
2022-12-08T06:25:23.746Z,45.74
2022-12-08T06:27:50.993Z,46.35
2022-12-08T06:30:17.634Z,46.01
2022-12-08T06:32:44.068Z,46.38
2022-12-08T06:35:10.700Z,45.94
2022-12-08T06:37:37.169Z,46.26
2022-12-08T06:40:03.785Z,46.17
2022-12-08T06:42:30.392Z,45.99
2022-12-08T06:44:57.206Z,46.02
2022-12-08T06:47:26.372Z,46.28
2022-12-08T06:49:53.349Z,46.12
2022-12-08T06:52:22.263Z,46.51
2022-12-08T06:54:48.670Z,46.88
2022-12-08T06:57:15.116Z,46.34
2022-12-08T06:59:41.689Z,46.60
2022-12-08T07:02:08.359Z,46.69
2022-12-08T07:04:34.990Z,46.23
2022-12-08T07:07:01.385Z,46.12
2022-12-08T07:09:28.364Z,46.32
2022-12-08T07:11:54.796Z,46.26
2022-12-08T07:14:21.589Z,46.14
2022-12-08T07:16:48.024Z,46.14
2022-12-08T07:19:14.537Z,45.86
2022-12-08T07:21:41.016Z,45.95
2022-12-08T07:24:07.471Z,46.38
2022-12-08T07:26:33.953Z,46.47
2022-12-08T07:29:01.385Z,46.42
2022-12-08T07:31:28.642Z,46.25
2022-12-08T07:33:55.059Z,46.13
2022-12-08T07:36:22.346Z,46.55
2022-12-08T07:38:48.980Z,46.38
2022-12-08T07:41:15.354Z,47.74
2022-12-08T07:43:41.751Z,47.68
2022-12-08T07:46:08.465Z,46.64
2022-12-08T07:48:39.688Z,46.75
2022-12-08T07:51:06.300Z,46.62
2022-12-08T07:53:32.660Z,46.76
2022-12-08T07:55:59.283Z,46.94
2022-12-08T07:58:25.672Z,46.73
2022-12-08T08:00:52.124Z,46.92
2022-12-08T08:03:18.640Z,47.18
2022-12-08T08:05:47.334Z,47.96
2022-12-08T08:08:13.800Z,48.06
2022-12-08T08:10:42.283Z,48.03
2022-12-08T08:13:08.653Z,47.77
2022-12-08T08:15:35.419Z,47.14
2022-12-08T08:18:01.989Z,46.99
2022-12-08T08:20:28.972Z,46.41
2022-12-08T08:22:55.397Z,46.48
2022-12-08T08:25:21.898Z,46.46
2022-12-08T08:27:48.395Z,46.38
2022-12-08T08:30:19.892Z,47.29
2022-12-08T08:32:47.986Z,47.83
2022-12-08T08:35:14.421Z,47.70
2022-12-08T08:37:45.582Z,48.28
2022-12-08T08:40:15.436Z,48.11
2022-12-08T08:42:41.876Z,48.46
2022-12-08T08:45:08.870Z,48.44
2022-12-08T08:47:35.407Z,48.38
2022-12-08T08:50:04.365Z,48.11
2022-12-08T08:52:31.702Z,47.87
2022-12-08T08:54:58.112Z,48.33
2022-12-08T08:57:26.079Z,49.04
2022-12-08T08:59:53.362Z,48.57
2022-12-08T09:02:19.842Z,47.59
2022-12-08T09:04:46.409Z,47.75
2022-12-08T09:07:20.075Z,47.68
2022-12-08T09:09:46.529Z,47.65
2022-12-08T09:12:12.978Z,47.66
2022-12-08T09:14:39.687Z,48.01
2022-12-08T09:17:06.282Z,47.23
2022-12-08T09:19:32.708Z,46.73
2022-12-08T09:21:59.597Z,47.47
2022-12-08T09:24:26.341Z,48.00
2022-12-08T09:26:52.826Z,47.75
2022-12-08T09:29:19.419Z,47.60
2022-12-08T09:31:46.601Z,47.30
2022-12-08T09:34:15.347Z,47.18
2022-12-08T09:36:41.877Z,47.97
2022-12-08T09:39:08.267Z,47.16
2022-12-08T09:41:39.284Z,51.76
2022-12-08T09:44:08.344Z,51.07
2022-12-08T09:46:34.982Z,49.83
2022-12-08T09:49:01.483Z,48.90
2022-12-08T09:51:28.012Z,47.47
2022-12-08T09:53:54.468Z,47.40
2022-12-08T09:56:20.852Z,46.38
2022-12-08T09:58:50.496Z,47.01
2022-12-08T10:01:16.953Z,47.07
2022-12-08T10:03:43.529Z,47.16
2022-12-08T10:06:09.902Z,46.90
2022-12-08T10:08:36.482Z,47.20
2022-12-08T10:11:02.895Z,46.92
2022-12-08T10:13:30.114Z,47.18
2022-12-08T10:15:56.826Z,47.97
2022-12-08T10:18:23.275Z,47.44
2022-12-08T10:20:52.086Z,47.69
2022-12-08T10:23:18.529Z,47.34
2022-12-08T10:25:45.450Z,48.27
2022-12-08T10:28:11.822Z,48.57
2022-12-08T10:30:38.385Z,48.47
2022-12-08T10:33:04.812Z,48.36
2022-12-08T10:35:31.514Z,48.37
2022-12-08T10:37:57.893Z,49.09
2022-12-08T10:40:24.346Z,49.26
2022-12-08T10:42:51.184Z,50.20
2022-12-08T10:45:21.384Z,49.53
2022-12-08T10:47:52.373Z,49.68
2022-12-08T10:50:22.155Z,49.08
2022-12-08T10:52:48.567Z,49.24
2022-12-08T10:55:15.096Z,48.89
2022-12-08T10:57:41.973Z,48.54
2022-12-08T11:00:13.758Z,49.03
2022-12-08T11:02:41.192Z,48.86
2022-12-08T11:05:07.588Z,49.25
2022-12-08T11:07:34.045Z,49.07
2022-12-08T11:10:00.553Z,49.37
2022-12-08T11:12:26.937Z,49.55
2022-12-08T11:14:53.335Z,49.08
2022-12-08T11:17:22.427Z,48.75
2022-12-08T11:19:49.017Z,48.81
2022-12-08T11:22:15.802Z,48.81
2022-12-08T11:24:42.355Z,48.75
2022-12-08T11:27:08.767Z,49.14
2022-12-08T11:29:35.386Z,48.89
2022-12-08T11:32:02.115Z,48.33
2022-12-08T11:34:29.622Z,48.71
2022-12-08T11:36:55.999Z,48.83
2022-12-08T11:39:22.420Z,48.73
2022-12-08T11:41:51.231Z,49.07
2022-12-08T11:44:17.969Z,49.14
2022-12-08T11:46:44.550Z,49.75
2022-12-08T11:49:11.391Z,50.01
2022-12-08T11:51:38.230Z,48.89
2022-12-08T11:54:04.727Z,50.17
2022-12-08T11:56:31.567Z,49.80
2022-12-08T11:59:00.094Z,48.78
2022-12-08T12:01:27.058Z,48.71
2022-12-08T12:03:53.514Z,49.09
2022-12-08T12:09:06.256Z,49.58
2022-12-08T12:11:32.699Z,49.21
2022-12-08T12:13:59.097Z,49.46
2022-12-08T12:16:25.562Z,49.59
2022-12-08T12:18:52.120Z,49.02
2022-12-08T12:21:18.575Z,48.60
2022-12-08T12:23:45.091Z,49.17
2022-12-08T12:26:11.469Z,48.92
2022-12-08T12:28:38.012Z,49.76
2022-12-08T12:31:04.432Z,49.24
2022-12-08T12:33:30.883Z,49.28
2022-12-08T12:35:57.287Z,49.02
2022-12-08T12:38:23.643Z,49.51
2022-12-08T12:40:51.013Z,49.64
2022-12-08T12:43:17.615Z,49.67
2022-12-08T12:45:44.194Z,49.15
2022-12-08T12:48:10.581Z,49.82
2022-12-08T12:50:37.564Z,49.87
2022-12-08T12:53:05.920Z,50.23
2022-12-08T12:55:36.361Z,49.66
2022-12-08T12:58:03.006Z,49.60
2022-12-08T13:00:29.602Z,50.07
2022-12-08T13:02:56.310Z,50.55
2022-12-08T13:05:22.754Z,49.99
2022-12-08T13:07:49.694Z,49.70
2022-12-08T13:10:16.590Z,50.08
2022-12-08T13:12:43.220Z,49.40
2022-12-08T13:15:09.886Z,49.84
2022-12-08T13:17:37.075Z,49.67
2022-12-08T13:20:04.832Z,49.91
2022-12-08T13:22:32.037Z,49.44
2022-12-08T13:24:58.735Z,49.81
2022-12-08T13:27:25.184Z,49.31
2022-12-08T13:29:51.978Z,49.05
2022-12-08T13:32:19.325Z,49.05
2022-12-08T13:34:47.507Z,49.13
2022-12-08T13:37:13.954Z,49.08
2022-12-08T13:39:41.041Z,49.29
2022-12-08T13:42:07.577Z,49.41
2022-12-08T13:47:41.473Z,49.08
2022-12-08T13:58:28.109Z,50.25
2022-12-08T14:00:55.524Z,49.31
2022-12-08T14:03:21.993Z,49.43
2022-12-08T14:06:11.689Z,51.71
2022-12-08T14:11:21.235Z,49.63
2022-12-08T14:13:47.650Z,50.00
2022-12-08T14:16:14.081Z,49.30
2022-12-08T14:18:40.740Z,48.83
2022-12-08T14:21:20.807Z,48.99
2022-12-08T14:23:47.945Z,49.43
2022-12-08T14:26:14.341Z,49.66
2022-12-08T14:28:44.744Z,49.73
2022-12-08T14:31:11.849Z,49.90
2022-12-08T14:33:39.551Z,49.96
2022-12-08T14:36:05.938Z,49.79
2022-12-08T14:38:32.448Z,49.57
2022-12-08T14:40:59.127Z,49.54
2022-12-08T14:43:26.040Z,50.42
2022-12-08T14:45:52.830Z,50.34
2022-12-08T14:48:19.500Z,50.95
2022-12-08T14:50:45.871Z,49.98
2022-12-08T14:53:13.659Z,49.66
2022-12-08T14:55:40.176Z,49.54
2022-12-08T14:58:11.635Z,49.83
2022-12-08T15:00:40.424Z,49.88
2022-12-08T15:03:06.865Z,50.61
2022-12-08T15:05:33.700Z,49.97
2022-12-08T15:08:00.284Z,49.63
2022-12-08T15:10:26.704Z,49.59
2022-12-08T15:12:53.172Z,49.59
2022-12-08T15:15:19.611Z,49.81
2022-12-08T15:17:46.293Z,49.83
2022-12-08T15:20:12.668Z,50.12
2022-12-08T15:22:39.191Z,50.17
2022-12-08T15:25:05.654Z,50.37
2022-12-08T15:27:36.620Z,50.05
2022-12-08T15:30:11.763Z,50.18
2022-12-08T15:32:38.510Z,49.97
2022-12-08T15:35:04.945Z,49.81
2022-12-08T15:37:31.352Z,49.96
2022-12-08T15:39:57.684Z,50.12
2022-12-08T15:42:24.223Z,50.29
2022-12-08T15:44:50.670Z,50.60
2022-12-08T15:47:17.645Z,50.36
2022-12-08T15:49:44.025Z,49.91
2022-12-08T15:52:11.818Z,49.71
2022-12-08T15:54:38.505Z,50.05
2022-12-08T15:57:19.459Z,50.07
2022-12-08T15:59:48.558Z,50.46
2022-12-08T16:02:22.386Z,50.16
2022-12-08T16:07:35.780Z,50.26
2022-12-08T16:10:02.989Z,50.25
2022-12-08T16:12:48.139Z,50.21
2022-12-08T16:15:49.997Z,50.13
2022-12-08T16:18:05.961Z,49.97
2022-12-08T16:21:05.475Z,50.10
2022-12-08T16:23:41.786Z,50.71
2022-12-08T16:26:24.121Z,50.14
2022-12-08T16:28:54.948Z,50.19
2022-12-08T16:31:23.408Z,50.41
2022-12-08T16:33:50.358Z,50.33
2022-12-08T16:36:17.405Z,50.05
2022-12-08T16:38:43.831Z,50.26
2022-12-08T16:41:12.952Z,50.62
2022-12-08T16:43:39.534Z,50.29
2022-12-08T16:46:05.958Z,50.44
2022-12-08T16:48:32.544Z,50.32
2022-12-08T16:50:58.982Z,50.07
2022-12-08T16:53:25.753Z,49.92
2022-12-08T16:55:54.673Z,50.37
2022-12-08T16:58:21.281Z,50.18
2022-12-08T17:00:47.951Z,50.06
2022-12-08T17:03:14.547Z,50.57
2022-12-08T17:05:42.053Z,50.13
2022-12-08T17:08:08.796Z,50.44
2022-12-08T17:10:35.488Z,50.60
2022-12-08T17:13:01.833Z,50.49
2022-12-08T17:15:28.549Z,51.35
2022-12-08T17:17:54.917Z,50.92
2022-12-08T17:20:21.389Z,51.04
2022-12-08T17:22:47.847Z,50.82
2022-12-08T17:25:14.244Z,50.64
2022-12-08T17:27:40.659Z,50.55
2022-12-08T17:30:07.500Z,50.29
2022-12-08T17:32:39.797Z,50.32
2022-12-08T17:35:06.402Z,50.58
2022-12-08T17:37:34.225Z,50.55
2022-12-08T17:40:00.847Z,50.58
2022-12-08T17:42:27.449Z,50.57
2022-12-08T17:44:55.792Z,51.02
2022-12-08T17:47:22.289Z,51.43
2022-12-08T17:49:49.157Z,51.30
2022-12-08T17:52:15.713Z,51.58
2022-12-08T17:54:42.419Z,51.94
2022-12-08T17:57:09.206Z,52.28
2022-12-08T17:59:36.028Z,51.80
2022-12-08T18:02:02.773Z,51.56
2022-12-08T18:04:31.687Z,51.42
2022-12-08T18:07:00.278Z,51.17
2022-12-08T18:09:27.158Z,51.11
2022-12-08T18:11:57.659Z,51.09
2022-12-08T18:14:27.173Z,51.07
2022-12-08T18:16:54.081Z,50.76
2022-12-08T18:19:21.168Z,51.67
2022-12-08T18:21:48.000Z,51.82
2022-12-08T18:24:14.517Z,51.96
2022-12-08T18:26:41.259Z,51.63
2022-12-08T18:29:07.939Z,51.56
2022-12-08T18:31:34.465Z,51.64
2022-12-08T18:34:01.286Z,51.90
2022-12-08T18:36:28.440Z,51.96
2022-12-08T18:38:55.072Z,51.18
2022-12-08T18:41:21.570Z,51.17
2022-12-08T18:43:48.075Z,51.00
2022-12-08T18:46:14.820Z,51.03
2022-12-08T18:48:41.622Z,50.85
2022-12-08T18:51:08.208Z,51.26
2022-12-08T18:53:34.824Z,50.93
2022-12-08T18:56:02.104Z,50.90
2022-12-08T18:58:28.996Z,51.33
2022-12-08T19:00:55.759Z,50.78
2022-12-08T19:03:22.676Z,50.63
2022-12-08T19:05:49.570Z,50.80
2022-12-08T19:08:16.579Z,50.99
2022-12-08T19:10:43.467Z,51.31
2022-12-08T19:13:10.053Z,51.60
2022-12-08T19:15:38.094Z,51.51
2022-12-08T19:18:08.720Z,51.74
2022-12-08T19:20:35.806Z,51.23
2022-12-08T19:23:02.747Z,51.63
2022-12-08T19:25:29.212Z,51.16
2022-12-08T19:27:57.714Z,51.40
2022-12-08T19:30:25.068Z,51.21
2022-12-08T19:32:52.012Z,51.69
2022-12-08T19:35:19.390Z,52.18
2022-12-08T19:37:46.657Z,52.21
2022-12-08T19:40:13.302Z,52.12
2022-12-08T19:42:42.619Z,52.77
2022-12-08T19:45:09.059Z,52.44
2022-12-08T19:47:36.877Z,51.87
2022-12-08T19:50:05.305Z,52.38
2022-12-08T19:52:32.657Z,52.06
2022-12-08T19:55:01.108Z,53.01
2022-12-08T19:57:32.535Z,53.39
2022-12-08T19:59:59.074Z,53.20
2022-12-08T20:02:26.081Z,53.24
2022-12-08T20:04:55.614Z,52.92
2022-12-08T20:07:22.159Z,52.76
2022-12-08T20:09:49.449Z,52.67
2022-12-08T20:12:16.391Z,52.04
2022-12-08T20:14:46.023Z,51.92
2022-12-08T20:17:13.566Z,51.76
2022-12-08T20:19:40.456Z,51.40
2022-12-08T20:22:07.447Z,51.12
2022-12-08T20:24:34.734Z,54.34
2022-12-08T20:27:02.347Z,56.85
2022-12-08T20:29:29.312Z,52.38
2022-12-08T20:31:56.272Z,55.12
2022-12-08T20:34:23.805Z,53.93
2022-12-08T20:36:51.673Z,53.81
2022-12-08T20:39:18.456Z,53.72
2022-12-08T20:41:45.024Z,52.59
2022-12-08T20:44:11.926Z,52.79
2022-12-08T20:46:38.858Z,52.09
2022-12-08T20:49:05.720Z,53.83
2022-12-08T20:51:32.606Z,54.50
2022-12-08T20:54:00.946Z,53.58
2022-12-08T20:56:27.777Z,53.40
2022-12-08T20:58:55.117Z,52.01
2022-12-08T21:01:21.657Z,49.95
2022-12-08T21:03:48.685Z,49.56
2022-12-08T21:06:16.062Z,50.87
2022-12-08T21:08:42.776Z,50.54
2022-12-08T21:11:10.326Z,50.16
2022-12-08T21:13:39.055Z,50.55
2022-12-08T21:16:05.742Z,50.16
2022-12-08T21:18:39.453Z,50.56
2022-12-08T21:21:06.842Z,50.50
2022-12-08T21:23:33.392Z,50.99
2022-12-08T21:26:00.017Z,50.88
2022-12-08T21:28:26.721Z,51.25
2022-12-08T21:30:53.113Z,51.37
2022-12-08T21:33:19.751Z,51.49
2022-12-08T21:35:46.325Z,51.34
2022-12-08T21:38:12.831Z,51.58
2022-12-08T21:40:39.380Z,51.42
2022-12-08T21:43:05.771Z,51.31
2022-12-08T21:45:32.322Z,51.39
2022-12-08T21:47:59.094Z,51.45
2022-12-08T21:50:25.976Z,51.25
2022-12-08T21:52:52.616Z,51.37
2022-12-08T21:55:19.254Z,51.30
2022-12-08T21:57:46.003Z,51.65
2022-12-08T22:00:12.612Z,51.61
2022-12-08T22:02:39.512Z,51.77
2022-12-08T22:05:06.477Z,51.85
2022-12-08T22:07:33.304Z,51.95
2022-12-08T22:09:59.938Z,51.39
2022-12-08T22:12:26.469Z,51.39
2022-12-08T22:14:53.150Z,51.57
2022-12-08T22:17:20.844Z,51.56
2022-12-08T22:19:48.781Z,51.47
2022-12-08T22:22:15.575Z,51.54
2022-12-08T22:24:42.198Z,51.15
2022-12-08T22:27:08.896Z,51.72
2022-12-08T22:29:35.633Z,51.85
2022-12-08T22:32:02.289Z,51.87
2022-12-08T22:34:29.081Z,52.06
2022-12-08T22:36:56.111Z,51.48
2022-12-08T22:39:22.918Z,51.41
2022-12-08T22:41:49.449Z,51.66
2022-12-08T22:44:16.022Z,51.49
2022-12-08T22:46:42.849Z,51.37
2022-12-08T22:49:09.621Z,50.86
2022-12-08T22:51:36.059Z,50.80
2022-12-08T22:54:02.861Z,51.12
2022-12-08T22:56:31.619Z,51.40
2022-12-08T22:58:58.163Z,51.14
2022-12-08T23:01:24.787Z,51.63
2022-12-08T23:03:51.423Z,51.59
2022-12-08T23:06:18.276Z,51.39
2022-12-08T23:08:45.237Z,50.89
2022-12-08T23:11:11.853Z,51.98
2022-12-08T23:13:38.439Z,51.42
2022-12-08T23:16:05.388Z,51.09
2022-12-08T23:18:31.911Z,51.04
2022-12-08T23:20:58.348Z,50.86
2022-12-08T23:23:24.929Z,50.63
2022-12-08T23:25:51.577Z,51.41
2022-12-08T23:28:18.235Z,51.39
2022-12-08T23:30:44.808Z,51.92
2022-12-08T23:33:12.377Z,51.92
2022-12-08T23:35:39.097Z,51.55
2022-12-08T23:38:05.528Z,51.58
2022-12-08T23:40:31.982Z,52.04
2022-12-08T23:42:58.620Z,52.63
2022-12-08T23:45:25.176Z,52.21
2022-12-08T23:47:51.811Z,52.37
2022-12-08T23:50:18.273Z,51.95
2022-12-08T23:52:44.832Z,52.81
2022-12-08T23:55:11.319Z,52.97
2022-12-08T23:57:38.045Z,52.92
